sensor_id;sensor_type;location;lat;lon;timestamp;pressure;altitude;pressure_sealevel;temperature;humidity
77626;BME280;66794;43.764;10.436;2023-05-07T00:02:45;101872.19;;;13.90;100.00
77626;BME280;66794;43.764;10.436;2023-05-07T00:05:30;101869.16;;;13.77;100.00
77626;BME280;66794;43.764;10.436;2023-05-07T00:08:16;101870.84;;;13.78;100.00
77626;BME280;66794;43.764;10.436;2023-05-07T00:11:02;101879.34;;;13.75;100.00
77626;BME280;66794;43.764;10.436;2023-05-07T00:13:47;101881.56;;;13.88;100.00
77626;BME280;66794;43.764;10.436;2023-05-07T00:16:33;101879.00;;;13.78;100.00
77626;BME280;66794;43.764;10.436;2023-05-07T00:19:19;101878.66;;;13.73;100.00
77626;BME280;66794;43.764;10.436;2023-05-07T00:22:04;101882.94;;;13.76;100.00
77626;BME280;66794;43.764;10.436;2023-05-07T00:24:50;101877.47;;;13.67;100.00
77626;BME280;66794;43.764;10.436;2023-05-07T00:27:36;101875.75;;;13.75;100.00
77626;BME280;66794;43.764;10.436;2023-05-07T00:30:21;101889.22;;;13.84;100.00
77626;BME280;66794;43.764;10.436;2023-05-07T00:33:07;101887.00;;;13.55;100.00
77626;BME280;66794;43.764;10.436;2023-05-07T00:35:53;101881.84;;;13.36;100.00
77626;BME280;66794;43.764;10.436;2023-05-07T00:38:39;101887.50;;;13.59;100.00
77626;BME280;66794;43.764;10.436;2023-05-07T00:41:26;101880.22;;;13.76;100.00
77626;BME280;66794;43.764;10.436;2023-05-07T00:44:11;101883.44;;;13.71;100.00
77626;BME280;66794;43.764;10.436;2023-05-07T00:46:57;101879.00;;;13.54;100.00
77626;BME280;66794;43.764;10.436;2023-05-07T00:49:43;101872.53;;;13.38;100.00
77626;BME280;66794;43.764;10.436;2023-05-07T00:52:29;101868.25;;;13.36;100.00
77626;BME280;66794;43.764;10.436;2023-05-07T00:55:15;101868.53;;;13.16;100.00
77626;BME280;66794;43.764;10.436;2023-05-07T00:58:01;101827.41;;;12.69;100.00
77626;BME280;66794;43.764;10.436;2023-05-07T01:00:46;101876.22;;;12.87;100.00
77626;BME280;66794;43.764;10.436;2023-05-07T01:03:32;101868.38;;;12.76;100.00
77626;BME280;66794;43.764;10.436;2023-05-07T01:06:18;101866.19;;;12.87;100.00
77626;BME280;66794;43.764;10.436;2023-05-07T01:09:04;101861.84;;;13.03;100.00
77626;BME280;66794;43.764;10.436;2023-05-07T01:11:50;101860.38;;;13.16;100.00
77626;BME280;66794;43.764;10.436;2023-05-07T01:14:36;101857.03;;;13.39;100.00
77626;BME280;66794;43.764;10.436;2023-05-07T01:17:21;101847.34;;;13.45;100.00
77626;BME280;66794;43.764;10.436;2023-05-07T01:20:07;101857.22;;;13.62;100.00
77626;BME280;66794;43.764;10.436;2023-05-07T01:22:53;101860.94;;;13.53;100.00
77626;BME280;66794;43.764;10.436;2023-05-07T01:25:39;101852.16;;;13.08;100.00
77626;BME280;66794;43.764;10.436;2023-05-07T01:28:25;101853.28;;;12.81;100.00
77626;BME280;66794;43.764;10.436;2023-05-07T01:31:11;101859.19;;;12.77;100.00
77626;BME280;66794;43.764;10.436;2023-05-07T01:33:57;101857.47;;;12.68;100.00
77626;BME280;66794;43.764;10.436;2023-05-07T01:36:44;101854.69;;;12.59;100.00
77626;BME280;66794;43.764;10.436;2023-05-07T01:39:31;101857.63;;;12.66;100.00
77626;BME280;66794;43.764;10.436;2023-05-07T01:42:17;101849.16;;;12.69;100.00
77626;BME280;66794;43.764;10.436;2023-05-07T01:45:03;101847.22;;;13.04;100.00
77626;BME280;66794;43.764;10.436;2023-05-07T01:47:49;101846.88;;;12.99;100.00
77626;BME280;66794;43.764;10.436;2023-05-07T01:50:35;101846.22;;;13.05;100.00
77626;BME280;66794;43.764;10.436;2023-05-07T01:53:21;101849.38;;;12.84;100.00
77626;BME280;66794;43.764;10.436;2023-05-07T01:56:07;101847.75;;;12.57;100.00
77626;BME280;66794;43.764;10.436;2023-05-07T01:58:53;101845.69;;;12.51;100.00
77626;BME280;66794;43.764;10.436;2023-05-07T02:01:38;101847.81;;;12.39;100.00
77626;BME280;66794;43.764;10.436;2023-05-07T02:04:24;101839.34;;;12.42;100.00
77626;BME280;66794;43.764;10.436;2023-05-07T02:07:10;101835.38;;;12.62;100.00
77626;BME280;66794;43.764;10.436;2023-05-07T02:09:55;101832.84;;;12.69;100.00
77626;BME280;66794;43.764;10.436;2023-05-07T02:12:41;101836.72;;;12.67;100.00
77626;BME280;66794;43.764;10.436;2023-05-07T02:15:28;101834.53;;;12.62;100.00
77626;BME280;66794;43.764;10.436;2023-05-07T02:18:13;101826.56;;;12.77;100.00
77626;BME280;66794;43.764;10.436;2023-05-07T02:20:59;101777.69;;;12.43;100.00
77626;BME280;66794;43.764;10.436;2023-05-07T02:23:44;101828.63;;;12.75;100.00
77626;BME280;66794;43.764;10.436;2023-05-07T02:26:30;101822.09;;;11.99;100.00
77626;BME280;66794;43.764;10.436;2023-05-07T02:29:16;101824.22;;;12.40;100.00
77626;BME280;66794;43.764;10.436;2023-05-07T02:32:02;101812.94;;;12.26;100.00
77626;BME280;66794;43.764;10.436;2023-05-07T02:34:49;101807.72;;;12.67;100.00
77626;BME280;66794;43.764;10.436;2023-05-07T02:37:35;101813.63;;;12.62;100.00
77626;BME280;66794;43.764;10.436;2023-05-07T02:40:21;101811.28;;;12.76;100.00
77626;BME280;66794;43.764;10.436;2023-05-07T02:43:06;101821.31;;;12.75;100.00
77626;BME280;66794;43.764;10.436;2023-05-07T02:46:04;101817.25;;;12.79;100.00
77626;BME280;66794;43.764;10.436;2023-05-07T02:48:50;101821.78;;;12.62;100.00
77626;BME280;66794;43.764;10.436;2023-05-07T02:51:36;101824.38;;;12.72;100.00
77626;BME280;66794;43.764;10.436;2023-05-07T02:54:22;101820.66;;;12.81;100.00
77626;BME280;66794;43.764;10.436;2023-05-07T02:57:07;101811.50;;;12.90;100.00
77626;BME280;66794;43.764;10.436;2023-05-07T02:59:53;101820.16;;;12.86;100.00
77626;BME280;66794;43.764;10.436;2023-05-07T03:02:38;101813.88;;;12.94;100.00
77626;BME280;66794;43.764;10.436;2023-05-07T03:05:24;101817.38;;;12.70;100.00
77626;BME280;66794;43.764;10.436;2023-05-07T03:08:10;101821.16;;;12.34;100.00
77626;BME280;66794;43.764;10.436;2023-05-07T03:10:56;101813.13;;;11.81;100.00
77626;BME280;66794;43.764;10.436;2023-05-07T03:13:41;101818.88;;;11.78;100.00
77626;BME280;66794;43.764;10.436;2023-05-07T03:16:27;101816.84;;;12.24;100.00
77626;BME280;66794;43.764;10.436;2023-05-07T03:19:13;101816.31;;;12.20;100.00
77626;BME280;66794;43.764;10.436;2023-05-07T03:21:58;101821.81;;;12.02;100.00
77626;BME280;66794;43.764;10.436;2023-05-07T03:24:44;101827.00;;;12.22;100.00
77626;BME280;66794;43.764;10.436;2023-05-07T03:27:30;101826.59;;;12.34;100.00
77626;BME280;66794;43.764;10.436;2023-05-07T03:30:15;101826.81;;;12.49;100.00
77626;BME280;66794;43.764;10.436;2023-05-07T03:33:01;101827.50;;;12.51;100.00
77626;BME280;66794;43.764;10.436;2023-05-07T03:35:47;101829.66;;;12.40;100.00
77626;BME280;66794;43.764;10.436;2023-05-07T03:38:32;101830.53;;;12.48;100.00
77626;BME280;66794;43.764;10.436;2023-05-07T03:41:18;101827.50;;;12.51;100.00
77626;BME280;66794;43.764;10.436;2023-05-07T03:44:03;101830.81;;;12.37;100.00
77626;BME280;66794;43.764;10.436;2023-05-07T03:46:49;101828.72;;;11.97;100.00
77626;BME280;66794;43.764;10.436;2023-05-07T03:49:35;101839.13;;;11.83;100.00
77626;BME280;66794;43.764;10.436;2023-05-07T03:52:20;101841.69;;;11.67;100.00
77626;BME280;66794;43.764;10.436;2023-05-07T03:55:11;101836.72;;;11.45;100.00
77626;BME280;66794;43.764;10.436;2023-05-07T03:57:56;101849.91;;;11.40;100.00
77626;BME280;66794;43.764;10.436;2023-05-07T04:00:42;101847.03;;;11.41;100.00
77626;BME280;66794;43.764;10.436;2023-05-07T04:03:28;101843.38;;;11.68;100.00
77626;BME280;66794;43.764;10.436;2023-05-07T04:06:15;101836.63;;;11.72;100.00
77626;BME280;66794;43.764;10.436;2023-05-07T04:09:00;101838.50;;;11.90;100.00
77626;BME280;66794;43.764;10.436;2023-05-07T04:11:46;101835.31;;;12.20;100.00
77626;BME280;66794;43.764;10.436;2023-05-07T04:14:32;101836.94;;;12.39;100.00
77626;BME280;66794;43.764;10.436;2023-05-07T04:17:17;101834.38;;;12.37;100.00
77626;BME280;66794;43.764;10.436;2023-05-07T04:20:03;101830.13;;;11.83;100.00
77626;BME280;66794;43.764;10.436;2023-05-07T04:22:49;101826.25;;;11.14;100.00
77626;BME280;66794;43.764;10.436;2023-05-07T04:25:35;101830.25;;;11.38;100.00
77626;BME280;66794;43.764;10.436;2023-05-07T04:28:20;101818.13;;;11.50;100.00
77626;BME280;66794;43.764;10.436;2023-05-07T04:31:06;101820.69;;;11.33;100.00
77626;BME280;66794;43.764;10.436;2023-05-07T04:33:52;101821.41;;;11.53;100.00
77626;BME280;66794;43.764;10.436;2023-05-07T04:36:38;101823.44;;;11.77;100.00
77626;BME280;66794;43.764;10.436;2023-05-07T04:39:24;101821.75;;;11.76;100.00
77626;BME280;66794;43.764;10.436;2023-05-07T04:42:09;101831.53;;;11.87;100.00
77626;BME280;66794;43.764;10.436;2023-05-07T04:44:59;101830.31;;;11.64;100.00
77626;BME280;66794;43.764;10.436;2023-05-07T04:47:45;101833.69;;;11.66;100.00
77626;BME280;66794;43.764;10.436;2023-05-07T04:50:31;101837.25;;;11.84;100.00
77626;BME280;66794;43.764;10.436;2023-05-07T04:53:16;101838.03;;;11.76;100.00
77626;BME280;66794;43.764;10.436;2023-05-07T04:56:02;101840.81;;;11.67;100.00
77626;BME280;66794;43.764;10.436;2023-05-07T04:58:48;101842.78;;;11.74;100.00
77626;BME280;66794;43.764;10.436;2023-05-07T05:01:34;101847.00;;;11.95;100.00
77626;BME280;66794;43.764;10.436;2023-05-07T05:04:20;101849.41;;;11.98;100.00
77626;BME280;66794;43.764;10.436;2023-05-07T05:07:05;101847.34;;;12.18;100.00
77626;BME280;66794;43.764;10.436;2023-05-07T05:09:51;101856.97;;;12.38;100.00
77626;BME280;66794;43.764;10.436;2023-05-07T05:12:37;101857.88;;;12.47;100.00
77626;BME280;66794;43.764;10.436;2023-05-07T05:15:23;101858.13;;;12.61;100.00
77626;BME280;66794;43.764;10.436;2023-05-07T05:18:08;101856.25;;;12.62;100.00
77626;BME280;66794;43.764;10.436;2023-05-07T05:20:54;101856.00;;;12.47;100.00
77626;BME280;66794;43.764;10.436;2023-05-07T05:23:40;101851.44;;;12.90;100.00
77626;BME280;66794;43.764;10.436;2023-05-07T05:26:25;101851.13;;;13.01;100.00
77626;BME280;66794;43.764;10.436;2023-05-07T05:29:11;101850.22;;;13.35;100.00
77626;BME280;66794;43.764;10.436;2023-05-07T05:31:57;101844.63;;;13.45;100.00
77626;BME280;66794;43.764;10.436;2023-05-07T05:34:42;101853.47;;;13.63;100.00
77626;BME280;66794;43.764;10.436;2023-05-07T05:37:28;101833.59;;;13.71;100.00
77626;BME280;66794;43.764;10.436;2023-05-07T05:40:15;101842.41;;;13.97;100.00
77626;BME280;66794;43.764;10.436;2023-05-07T05:43:01;101840.50;;;14.30;100.00
77626;BME280;66794;43.764;10.436;2023-05-07T05:45:46;101840.13;;;14.41;100.00
77626;BME280;66794;43.764;10.436;2023-05-07T05:48:32;101837.38;;;14.58;100.00
77626;BME280;66794;43.764;10.436;2023-05-07T05:51:17;101845.88;;;14.63;100.00
77626;BME280;66794;43.764;10.436;2023-05-07T05:54:03;101843.41;;;14.76;100.00
77626;BME280;66794;43.764;10.436;2023-05-07T05:56:50;101846.59;;;14.88;100.00
77626;BME280;66794;43.764;10.436;2023-05-07T05:59:35;101842.41;;;15.08;100.00
77626;BME280;66794;43.764;10.436;2023-05-07T06:02:21;101849.38;;;15.11;100.00
77626;BME280;66794;43.764;10.436;2023-05-07T06:05:07;101847.56;;;14.95;100.00
77626;BME280;66794;43.764;10.436;2023-05-07T06:07:52;101850.88;;;14.90;100.00
77626;BME280;66794;43.764;10.436;2023-05-07T06:10:38;101842.28;;;15.02;100.00
77626;BME280;66794;43.764;10.436;2023-05-07T06:13:24;101838.19;;;14.97;100.00
77626;BME280;66794;43.764;10.436;2023-05-07T06:16:09;101839.50;;;15.10;100.00
77626;BME280;66794;43.764;10.436;2023-05-07T06:18:55;101832.53;;;15.30;100.00
77626;BME280;66794;43.764;10.436;2023-05-07T06:21:41;101834.44;;;15.52;100.00
77626;BME280;66794;43.764;10.436;2023-05-07T06:24:26;101837.66;;;15.79;100.00
77626;BME280;66794;43.764;10.436;2023-05-07T06:27:12;101840.03;;;15.82;100.00
77626;BME280;66794;43.764;10.436;2023-05-07T06:29:58;101795.75;;;15.72;100.00
77626;BME280;66794;43.764;10.436;2023-05-07T06:32:43;101851.19;;;16.25;100.00
77626;BME280;66794;43.764;10.436;2023-05-07T06:35:29;101851.13;;;16.18;100.00
77626;BME280;66794;43.764;10.436;2023-05-07T06:38:15;101842.19;;;16.39;100.00
77626;BME280;66794;43.764;10.436;2023-05-07T06:41:01;101849.16;;;16.56;100.00
77626;BME280;66794;43.764;10.436;2023-05-07T06:43:46;101851.69;;;16.58;100.00
77626;BME280;66794;43.764;10.436;2023-05-07T06:46:32;101858.22;;;16.87;100.00
77626;BME280;66794;43.764;10.436;2023-05-07T06:49:18;101856.03;;;16.97;100.00
77626;BME280;66794;43.764;10.436;2023-05-07T06:52:03;101867.13;;;17.10;100.00
77626;BME280;66794;43.764;10.436;2023-05-07T06:54:49;101870.03;;;17.23;100.00
77626;BME280;66794;43.764;10.436;2023-05-07T06:57:34;101872.38;;;17.26;100.00
77626;BME280;66794;43.764;10.436;2023-05-07T07:00:20;101870.25;;;17.43;100.00
77626;BME280;66794;43.764;10.436;2023-05-07T07:03:06;101881.28;;;17.50;100.00
77626;BME280;66794;43.764;10.436;2023-05-07T07:05:52;101883.63;;;17.53;100.00
77626;BME280;66794;43.764;10.436;2023-05-07T07:08:38;101885.72;;;17.51;100.00
77626;BME280;66794;43.764;10.436;2023-05-07T07:11:24;101888.38;;;17.66;100.00
77626;BME280;66794;43.764;10.436;2023-05-07T07:14:09;101890.88;;;17.60;100.00
77626;BME280;66794;43.764;10.436;2023-05-07T07:16:55;101902.59;;;17.54;100.00
77626;BME280;66794;43.764;10.436;2023-05-07T07:19:41;101894.56;;;17.89;100.00
77626;BME280;66794;43.764;10.436;2023-05-07T07:22:26;101893.09;;;17.72;100.00
77626;BME280;66794;43.764;10.436;2023-05-07T07:25:12;101885.56;;;17.95;100.00
77626;BME280;66794;43.764;10.436;2023-05-07T07:27:57;101869.06;;;18.17;100.00
77626;BME280;66794;43.764;10.436;2023-05-07T07:30:43;101872.50;;;18.25;100.00
77626;BME280;66794;43.764;10.436;2023-05-07T07:33:29;101871.00;;;18.51;100.00
77626;BME280;66794;43.764;10.436;2023-05-07T07:36:15;101873.31;;;18.54;100.00
77626;BME280;66794;43.764;10.436;2023-05-07T07:39:01;101880.13;;;18.92;100.00
77626;BME280;66794;43.764;10.436;2023-05-07T07:41:47;101882.53;;;18.68;100.00
77626;BME280;66794;43.764;10.436;2023-05-07T07:44:32;101885.13;;;18.76;100.00
77626;BME280;66794;43.764;10.436;2023-05-07T07:47:18;101891.16;;;19.06;100.00
77626;BME280;66794;43.764;10.436;2023-05-07T07:50:04;101884.81;;;19.05;100.00
77626;BME280;66794;43.764;10.436;2023-05-07T07:52:49;101886.84;;;19.44;100.00
77626;BME280;66794;43.764;10.436;2023-05-07T07:55:38;101894.25;;;19.44;100.00
77626;BME280;66794;43.764;10.436;2023-05-07T07:58:25;101892.78;;;19.41;100.00
77626;BME280;66794;43.764;10.436;2023-05-07T08:01:11;101893.91;;;19.60;100.00
77626;BME280;66794;43.764;10.436;2023-05-07T08:03:58;101894.13;;;19.65;100.00
77626;BME280;66794;43.764;10.436;2023-05-07T08:06:44;101892.03;;;19.81;100.00
77626;BME280;66794;43.764;10.436;2023-05-07T08:09:29;101892.03;;;19.74;100.00
77626;BME280;66794;43.764;10.436;2023-05-07T08:12:15;101891.41;;;19.92;100.00
77626;BME280;66794;43.764;10.436;2023-05-07T08:15:01;101894.38;;;19.97;100.00
77626;BME280;66794;43.764;10.436;2023-05-07T08:17:46;101897.75;;;20.06;100.00
77626;BME280;66794;43.764;10.436;2023-05-07T08:20:32;101895.63;;;20.28;100.00
77626;BME280;66794;43.764;10.436;2023-05-07T08:23:18;101900.28;;;20.34;99.44
77626;BME280;66794;43.764;10.436;2023-05-07T08:26:04;101902.59;;;20.63;95.16
77626;BME280;66794;43.764;10.436;2023-05-07T08:28:50;101903.03;;;20.54;88.73
77626;BME280;66794;43.764;10.436;2023-05-07T08:31:36;101900.47;;;20.72;84.67
77626;BME280;66794;43.764;10.436;2023-05-07T08:34:22;101907.22;;;20.83;80.44
77626;BME280;66794;43.764;10.436;2023-05-07T08:37:07;101904.72;;;21.19;78.91
77626;BME280;66794;43.764;10.436;2023-05-07T08:39:53;101914.34;;;21.55;77.53
77626;BME280;66794;43.764;10.436;2023-05-07T08:42:39;101914.91;;;21.32;72.44
77626;BME280;66794;43.764;10.436;2023-05-07T08:45:25;101917.47;;;21.20;74.61
77626;BME280;66794;43.764;10.436;2023-05-07T08:48:14;101917.19;;;21.35;75.42
77626;BME280;66794;43.764;10.436;2023-05-07T08:51:01;101918.19;;;21.54;77.56
77626;BME280;66794;43.764;10.436;2023-05-07T08:53:47;101924.25;;;21.94;77.78
77626;BME280;66794;43.764;10.436;2023-05-07T08:56:35;101918.44;;;21.77;70.40
77626;BME280;66794;43.764;10.436;2023-05-07T08:59:21;101922.81;;;21.60;73.02
77626;BME280;66794;43.764;10.436;2023-05-07T09:02:07;101924.06;;;21.58;71.17
77626;BME280;66794;43.764;10.436;2023-05-07T09:04:54;101934.09;;;21.84;64.68
77626;BME280;66794;43.764;10.436;2023-05-07T09:07:40;101923.34;;;21.75;66.84
77626;BME280;66794;43.764;10.436;2023-05-07T09:10:26;101914.88;;;22.02;67.49
77626;BME280;66794;43.764;10.436;2023-05-07T09:13:12;101909.50;;;22.07;71.72
77626;BME280;66794;43.764;10.436;2023-05-07T09:16:09;101911.81;;;21.85;70.44
77626;BME280;66794;43.764;10.436;2023-05-07T09:18:57;101905.28;;;21.79;70.59
77626;BME280;66794;43.764;10.436;2023-05-07T09:21:42;101905.19;;;21.93;70.17
77626;BME280;66794;43.764;10.436;2023-05-07T09:24:28;101903.38;;;22.05;71.73
77626;BME280;66794;43.764;10.436;2023-05-07T09:27:16;101903.34;;;21.80;73.46
77626;BME280;66794;43.764;10.436;2023-05-07T09:30:03;101901.25;;;22.14;72.52
77626;BME280;66794;43.764;10.436;2023-05-07T09:32:48;101903.03;;;22.26;71.31
77626;BME280;66794;43.764;10.436;2023-05-07T09:35:34;101904.09;;;22.25;70.26
77626;BME280;66794;43.764;10.436;2023-05-07T09:38:20;101898.94;;;22.04;70.24
77626;BME280;66794;43.764;10.436;2023-05-07T09:41:07;101901.84;;;22.41;67.53
77626;BME280;66794;43.764;10.436;2023-05-07T09:43:53;101890.81;;;22.59;67.45
77626;BME280;66794;43.764;10.436;2023-05-07T09:46:41;101897.25;;;22.71;68.02
77626;BME280;66794;43.764;10.436;2023-05-07T09:49:28;101899.53;;;23.18;67.05
77626;BME280;66794;43.764;10.436;2023-05-07T09:52:15;101894.00;;;22.99;67.51
77626;BME280;66794;43.764;10.436;2023-05-07T09:55:01;101898.06;;;23.15;66.76
77626;BME280;66794;43.764;10.436;2023-05-07T09:57:51;101891.38;;;23.04;66.67
77626;BME280;66794;43.764;10.436;2023-05-07T10:00:37;101889.88;;;22.90;66.23
77626;BME280;66794;43.764;10.436;2023-05-07T10:03:25;101882.09;;;22.80;66.27
77626;BME280;66794;43.764;10.436;2023-05-07T10:06:13;101890.94;;;23.07;68.92
77626;BME280;66794;43.764;10.436;2023-05-07T10:09:00;101887.97;;;23.39;67.07
77626;BME280;66794;43.764;10.436;2023-05-07T10:11:46;101887.56;;;23.05;67.47
77626;BME280;66794;43.764;10.436;2023-05-07T10:14:34;101881.88;;;23.49;65.16
77626;BME280;66794;43.764;10.436;2023-05-07T10:17:20;101882.09;;;23.17;67.93
77626;BME280;66794;43.764;10.436;2023-05-07T10:20:06;101873.34;;;23.50;66.82
77626;BME280;66794;43.764;10.436;2023-05-07T10:22:52;101871.84;;;23.06;65.93
77626;BME280;66794;43.764;10.436;2023-05-07T10:25:40;101867.44;;;22.98;67.38
77626;BME280;66794;43.764;10.436;2023-05-07T10:28:26;101869.28;;;23.23;67.53
77626;BME280;66794;43.764;10.436;2023-05-07T10:34:10;101872.25;;;23.21;71.96
77626;BME280;66794;43.764;10.436;2023-05-07T10:36:56;101863.16;;;23.93;71.54
77626;BME280;66794;43.764;10.436;2023-05-07T10:39:42;101866.97;;;23.50;71.35
77626;BME280;66794;43.764;10.436;2023-05-07T10:42:28;101870.84;;;23.00;71.75
77626;BME280;66794;43.764;10.436;2023-05-07T10:45:14;101876.28;;;22.89;76.16
77626;BME280;66794;43.764;10.436;2023-05-07T10:48:07;101863.22;;;23.44;75.69
77626;BME280;66794;43.764;10.436;2023-05-07T10:51:17;101871.88;;;23.48;73.09
77626;BME280;66794;43.764;10.436;2023-05-07T10:56:57;101864.53;;;23.72;72.16
77626;BME280;66794;43.764;10.436;2023-05-07T11:00:02;101866.16;;;24.73;66.83
77626;BME280;66794;43.764;10.436;2023-05-07T11:03:07;101863.78;;;24.65;64.72
77626;BME280;66794;43.764;10.436;2023-05-07T11:08:57;101865.16;;;23.85;67.62
77626;BME280;66794;43.764;10.436;2023-05-07T11:11:44;101861.22;;;23.93;69.78
77626;BME280;66794;43.764;10.436;2023-05-07T11:17:27;101864.38;;;24.55;71.46
77626;BME280;66794;43.764;10.436;2023-05-07T11:20:17;101860.63;;;24.26;74.16
77626;BME280;66794;43.764;10.436;2023-05-07T11:23:02;101862.31;;;24.27;76.05
77626;BME280;66794;43.764;10.436;2023-05-07T11:25:48;101858.22;;;24.18;73.84
77626;BME280;66794;43.764;10.436;2023-05-07T11:28:37;101867.59;;;24.17;75.18
77626;BME280;66794;43.764;10.436;2023-05-07T11:31:24;101854.25;;;24.14;71.97
77626;BME280;66794;43.764;10.436;2023-05-07T11:34:11;101860.84;;;24.13;72.51
77626;BME280;66794;43.764;10.436;2023-05-07T11:36:57;101861.59;;;24.20;71.78
77626;BME280;66794;43.764;10.436;2023-05-07T11:39:43;101864.28;;;23.43;74.05
77626;BME280;66794;43.764;10.436;2023-05-07T11:45:22;101860.78;;;23.36;73.97
77626;BME280;66794;43.764;10.436;2023-05-07T11:48:08;101862.19;;;23.57;73.95
77626;BME280;66794;43.764;10.436;2023-05-07T11:50:59;101862.91;;;24.06;66.40
77626;BME280;66794;43.764;10.436;2023-05-07T11:53:45;101861.09;;;24.23;64.37
77626;BME280;66794;43.764;10.436;2023-05-07T11:56:33;101866.63;;;24.23;66.38
77626;BME280;66794;43.764;10.436;2023-05-07T11:59:19;101862.06;;;24.17;68.27
77626;BME280;66794;43.764;10.436;2023-05-07T12:02:05;101861.19;;;23.81;69.05
77626;BME280;66794;43.764;10.436;2023-05-07T12:04:51;101857.44;;;23.76;67.60
77626;BME280;66794;43.764;10.436;2023-05-07T12:07:37;101861.72;;;23.30;66.41
77626;BME280;66794;43.764;10.436;2023-05-07T12:10:22;101857.72;;;23.26;66.46
77626;BME280;66794;43.764;10.436;2023-05-07T12:13:16;101856.56;;;23.64;64.26
77626;BME280;66794;43.764;10.436;2023-05-07T12:16:02;101859.75;;;24.02;65.06
77626;BME280;66794;43.764;10.436;2023-05-07T12:18:50;101863.28;;;24.09;63.79
77626;BME280;66794;43.764;10.436;2023-05-07T12:21:38;101855.22;;;24.55;57.99
77626;BME280;66794;43.764;10.436;2023-05-07T12:24:24;101856.91;;;24.32;57.99
77626;BME280;66794;43.764;10.436;2023-05-07T12:27:09;101857.75;;;24.33;60.77
77626;BME280;66794;43.764;10.436;2023-05-07T12:29:56;101851.75;;;24.48;59.55
77626;BME280;66794;43.764;10.436;2023-05-07T12:32:43;101863.19;;;25.03;58.17
77626;BME280;66794;43.764;10.436;2023-05-07T12:35:31;101852.09;;;24.39;58.22
77626;BME280;66794;43.764;10.436;2023-05-07T12:38:17;101861.81;;;24.77;58.27
77626;BME280;66794;43.764;10.436;2023-05-07T12:41:03;101850.38;;;25.26;55.51
77626;BME280;66794;43.764;10.436;2023-05-07T12:43:49;101848.00;;;25.17;58.05
77626;BME280;66794;43.764;10.436;2023-05-07T12:46:38;101851.75;;;25.11;54.81
77626;BME280;66794;43.764;10.436;2023-05-07T12:49:24;101848.72;;;24.14;55.93
77626;BME280;66794;43.764;10.436;2023-05-07T12:52:10;101842.63;;;25.56;53.53
77626;BME280;66794;43.764;10.436;2023-05-07T12:54:56;101842.94;;;25.14;52.64
77626;BME280;66794;43.764;10.436;2023-05-07T12:57:43;101843.09;;;25.82;49.48
77626;BME280;66794;43.764;10.436;2023-05-07T13:00:38;101842.16;;;24.90;51.99
77626;BME280;66794;43.764;10.436;2023-05-07T13:03:33;101839.66;;;24.77;51.51
77626;BME280;66794;43.764;10.436;2023-05-07T13:06:19;101835.88;;;25.52;49.49
77626;BME280;66794;43.764;10.436;2023-05-07T13:09:05;101834.41;;;24.52;51.90
77626;BME280;66794;43.764;10.436;2023-05-07T13:11:50;101835.53;;;25.77;48.20
77626;BME280;66794;43.764;10.436;2023-05-07T13:14:36;101828.22;;;25.42;48.15
77626;BME280;66794;43.764;10.436;2023-05-07T13:17:22;101823.28;;;26.29;45.75
77626;BME280;66794;43.764;10.436;2023-05-07T13:20:08;101831.25;;;25.41;46.76
77626;BME280;66794;43.764;10.436;2023-05-07T13:22:54;101817.63;;;25.85;45.37
77626;BME280;66794;43.764;10.436;2023-05-07T13:25:40;101817.59;;;26.79;44.96
77626;BME280;66794;43.764;10.436;2023-05-07T13:28:25;101820.88;;;25.20;42.65
77626;BME280;66794;43.764;10.436;2023-05-07T13:31:11;101809.22;;;25.80;42.95
77626;BME280;66794;43.764;10.436;2023-05-07T13:33:57;101816.75;;;26.57;42.30
77626;BME280;66794;43.764;10.436;2023-05-07T13:36:42;101819.72;;;25.94;43.52
77626;BME280;66794;43.764;10.436;2023-05-07T13:39:28;101812.53;;;26.32;39.33
77626;BME280;66794;43.764;10.436;2023-05-07T13:42:14;101818.69;;;26.17;40.09
77626;BME280;66794;43.764;10.436;2023-05-07T13:44:59;101820.31;;;25.96;41.03
77626;BME280;66794;43.764;10.436;2023-05-07T13:47:46;101810.88;;;26.36;42.52
77626;BME280;66794;43.764;10.436;2023-05-07T13:50:32;101814.19;;;26.33;44.74
77626;BME280;66794;43.764;10.436;2023-05-07T13:53:17;101815.09;;;26.00;43.60
77626;BME280;66794;43.764;10.436;2023-05-07T13:56:03;101815.81;;;25.16;46.66
77626;BME280;66794;43.764;10.436;2023-05-07T13:58:49;101811.03;;;26.08;46.92
77626;BME280;66794;43.764;10.436;2023-05-07T14:01:35;101803.84;;;26.67;41.06
77626;BME280;66794;43.764;10.436;2023-05-07T14:04:21;101810.06;;;26.36;42.21
77626;BME280;66794;43.764;10.436;2023-05-07T14:07:07;101813.63;;;26.14;40.85
77626;BME280;66794;43.764;10.436;2023-05-07T14:09:52;101819.97;;;25.76;43.59
77626;BME280;66794;43.764;10.436;2023-05-07T14:12:38;101814.75;;;24.65;42.48
77626;BME280;66794;43.764;10.436;2023-05-07T14:15:24;101813.09;;;24.18;45.93
77626;BME280;66794;43.764;10.436;2023-05-07T14:18:09;101826.31;;;25.03;45.80
77626;BME280;66794;43.764;10.436;2023-05-07T14:20:55;101797.00;;;25.18;41.00
77626;BME280;66794;43.764;10.436;2023-05-07T14:23:40;101826.19;;;25.38;38.83
77626;BME280;66794;43.764;10.436;2023-05-07T14:26:26;101825.22;;;25.15;40.62